sensor_id;sensor_type;location;lat;lon;timestamp;P1;durP1;ratioP1;P2;durP2;ratioP2
47429;SDS011;33181;49.246;7.372;2022-12-10T00:01:10;30.27;;;17.70;;
47429;SDS011;33181;49.246;7.372;2022-12-10T00:03:39;30.90;;;17.20;;
47429;SDS011;33181;49.246;7.372;2022-12-10T00:06:06;27.90;;;16.80;;
47429;SDS011;33181;49.246;7.372;2022-12-10T00:08:39;30.13;;;17.17;;
47429;SDS011;33181;49.246;7.372;2022-12-10T00:11:08;27.97;;;15.80;;
47429;SDS011;33181;49.246;7.372;2022-12-10T00:13:37;28.80;;;16.43;;
47429;SDS011;33181;49.246;7.372;2022-12-10T00:16:04;28.07;;;15.60;;
47429;SDS011;33181;49.246;7.372;2022-12-10T00:18:33;30.13;;;16.93;;
47429;SDS011;33181;49.246;7.372;2022-12-10T00:21:04;27.27;;;15.80;;
47429;SDS011;33181;49.246;7.372;2022-12-10T00:23:32;27.00;;;16.10;;
47429;SDS011;33181;49.246;7.372;2022-12-10T00:26:06;27.77;;;15.90;;
47429;SDS011;33181;49.246;7.372;2022-12-10T00:28:37;26.77;;;15.07;;
47429;SDS011;33181;49.246;7.372;2022-12-10T00:31:05;30.20;;;16.47;;
47429;SDS011;33181;49.246;7.372;2022-12-10T00:33:33;28.50;;;15.93;;
47429;SDS011;33181;49.246;7.372;2022-12-10T00:36:01;26.73;;;15.90;;
47429;SDS011;33181;49.246;7.372;2022-12-10T00:38:33;31.17;;;16.73;;
47429;SDS011;33181;49.246;7.372;2022-12-10T00:41:00;31.30;;;16.13;;
47429;SDS011;33181;49.246;7.372;2022-12-10T00:43:26;27.70;;;16.20;;
47429;SDS011;33181;49.246;7.372;2022-12-10T00:45:52;33.93;;;16.90;;
47429;SDS011;33181;49.246;7.372;2022-12-10T00:48:18;29.43;;;16.97;;
47429;SDS011;33181;49.246;7.372;2022-12-10T00:50:53;28.63;;;17.83;;
47429;SDS011;33181;49.246;7.372;2022-12-10T00:53:30;27.80;;;17.53;;
47429;SDS011;33181;49.246;7.372;2022-12-10T00:55:58;28.70;;;16.70;;
47429;SDS011;33181;49.246;7.372;2022-12-10T00:58:26;29.53;;;16.60;;
47429;SDS011;33181;49.246;7.372;2022-12-10T01:00:54;27.43;;;15.30;;
47429;SDS011;33181;49.246;7.372;2022-12-10T01:03:30;24.97;;;14.90;;
47429;SDS011;33181;49.246;7.372;2022-12-10T01:05:56;29.53;;;16.07;;
47429;SDS011;33181;49.246;7.372;2022-12-10T01:08:22;27.50;;;15.50;;
47429;SDS011;33181;49.246;7.372;2022-12-10T01:10:52;27.10;;;16.10;;
47429;SDS011;33181;49.246;7.372;2022-12-10T01:13:18;29.93;;;16.33;;
47429;SDS011;33181;49.246;7.372;2022-12-10T01:15:44;31.90;;;16.87;;
47429;SDS011;33181;49.246;7.372;2022-12-10T01:18:09;30.40;;;16.50;;
47429;SDS011;33181;49.246;7.372;2022-12-10T01:20:35;26.37;;;15.80;;
47429;SDS011;33181;49.246;7.372;2022-12-10T01:23:01;25.70;;;16.10;;
47429;SDS011;33181;49.246;7.372;2022-12-10T01:25:27;30.57;;;17.93;;
47429;SDS011;33181;49.246;7.372;2022-12-10T01:27:53;27.50;;;16.50;;
47429;SDS011;33181;49.246;7.372;2022-12-10T01:30:19;30.10;;;16.70;;
47429;SDS011;33181;49.246;7.372;2022-12-10T01:32:45;30.93;;;17.70;;
47429;SDS011;33181;49.246;7.372;2022-12-10T01:35:10;32.13;;;17.37;;
47429;SDS011;33181;49.246;7.372;2022-12-10T01:37:36;27.60;;;15.37;;
47429;SDS011;33181;49.246;7.372;2022-12-10T01:40:02;26.90;;;15.70;;
47429;SDS011;33181;49.246;7.372;2022-12-10T01:42:28;26.63;;;16.13;;
47429;SDS011;33181;49.246;7.372;2022-12-10T01:44:58;27.27;;;16.10;;
47429;SDS011;33181;49.246;7.372;2022-12-10T01:47:28;28.50;;;16.20;;
47429;SDS011;33181;49.246;7.372;2022-12-10T01:49:54;27.67;;;16.30;;
47429;SDS011;33181;49.246;7.372;2022-12-10T01:52:22;31.00;;;17.30;;
47429;SDS011;33181;49.246;7.372;2022-12-10T01:54:47;36.13;;;17.63;;
47429;SDS011;33181;49.246;7.372;2022-12-10T01:57:15;32.17;;;16.53;;
47429;SDS011;33181;49.246;7.372;2022-12-10T01:59:46;27.07;;;15.33;;
47429;SDS011;33181;49.246;7.372;2022-12-10T02:08:17;29.63;;;15.70;;
47429;SDS011;33181;49.246;7.372;2022-12-10T02:10:59;25.83;;;14.90;;
47429;SDS011;33181;49.246;7.372;2022-12-10T02:14:08;25.57;;;14.53;;
47429;SDS011;33181;49.246;7.372;2022-12-10T02:16:41;28.17;;;14.90;;
47429;SDS011;33181;49.246;7.372;2022-12-10T02:19:21;27.00;;;15.13;;
47429;SDS011;33181;49.246;7.372;2022-12-10T02:22:23;23.23;;;14.20;;
47429;SDS011;33181;49.246;7.372;2022-12-10T02:24:54;28.60;;;15.10;;
47429;SDS011;33181;49.246;7.372;2022-12-10T02:27:27;27.17;;;15.00;;
47429;SDS011;33181;49.246;7.372;2022-12-10T02:30:04;22.43;;;13.77;;
47429;SDS011;33181;49.246;7.372;2022-12-10T02:32:35;24.60;;;13.87;;
47429;SDS011;33181;49.246;7.372;2022-12-10T02:35:08;24.03;;;14.30;;
47429;SDS011;33181;49.246;7.372;2022-12-10T02:37:53;24.67;;;14.33;;
47429;SDS011;33181;49.246;7.372;2022-12-10T02:40:31;24.50;;;14.60;;
47429;SDS011;33181;49.246;7.372;2022-12-10T02:43:00;25.70;;;15.47;;
47429;SDS011;33181;49.246;7.372;2022-12-10T02:45:27;26.20;;;14.97;;
47429;SDS011;33181;49.246;7.372;2022-12-10T02:47:56;24.30;;;14.03;;
47429;SDS011;33181;49.246;7.372;2022-12-10T02:50:25;26.27;;;15.30;;
47429;SDS011;33181;49.246;7.372;2022-12-10T02:52:51;24.57;;;14.20;;
47429;SDS011;33181;49.246;7.372;2022-12-10T02:55:17;24.30;;;13.70;;
47429;SDS011;33181;49.246;7.372;2022-12-10T02:57:53;25.77;;;15.40;;
47429;SDS011;33181;49.246;7.372;2022-12-10T03:00:43;32.43;;;15.60;;
47429;SDS011;33181;49.246;7.372;2022-12-10T03:03:33;25.73;;;15.30;;
47429;SDS011;33181;49.246;7.372;2022-12-10T03:09:17;24.83;;;14.60;;
47429;SDS011;33181;49.246;7.372;2022-12-10T03:12:15;21.87;;;13.87;;
47429;SDS011;33181;49.246;7.372;2022-12-10T03:15:09;26.63;;;15.50;;
47429;SDS011;33181;49.246;7.372;2022-12-10T03:17:38;23.67;;;13.53;;
47429;SDS011;33181;49.246;7.372;2022-12-10T03:20:07;24.70;;;14.33;;
47429;SDS011;33181;49.246;7.372;2022-12-10T03:22:36;25.60;;;14.10;;
47429;SDS011;33181;49.246;7.372;2022-12-10T03:25:06;25.57;;;13.93;;
47429;SDS011;33181;49.246;7.372;2022-12-10T03:27:35;25.90;;;14.00;;
47429;SDS011;33181;49.246;7.372;2022-12-10T03:30:04;24.23;;;14.00;;
47429;SDS011;33181;49.246;7.372;2022-12-10T03:32:31;21.73;;;12.80;;
47429;SDS011;33181;49.246;7.372;2022-12-10T03:34:58;23.37;;;14.17;;
47429;SDS011;33181;49.246;7.372;2022-12-10T03:37:25;21.53;;;13.00;;
47429;SDS011;33181;49.246;7.372;2022-12-10T03:39:53;23.07;;;13.37;;
47429;SDS011;33181;49.246;7.372;2022-12-10T03:42:21;25.47;;;13.70;;
47429;SDS011;33181;49.246;7.372;2022-12-10T03:44:49;24.00;;;13.17;;
47429;SDS011;33181;49.246;7.372;2022-12-10T03:47:16;21.33;;;13.67;;
47429;SDS011;33181;49.246;7.372;2022-12-10T03:49:42;24.03;;;13.87;;
47429;SDS011;33181;49.246;7.372;2022-12-10T03:52:09;26.33;;;14.43;;
47429;SDS011;33181;49.246;7.372;2022-12-10T03:54:35;23.13;;;13.57;;
47429;SDS011;33181;49.246;7.372;2022-12-10T03:57:01;27.33;;;14.70;;
47429;SDS011;33181;49.246;7.372;2022-12-10T03:59:27;24.07;;;14.20;;
47429;SDS011;33181;49.246;7.372;2022-12-10T04:01:53;24.70;;;14.07;;
47429;SDS011;33181;49.246;7.372;2022-12-10T04:04:19;25.47;;;14.30;;
47429;SDS011;33181;49.246;7.372;2022-12-10T04:06:45;22.23;;;14.00;;
47429;SDS011;33181;49.246;7.372;2022-12-10T04:09:12;24.63;;;14.37;;
47429;SDS011;33181;49.246;7.372;2022-12-10T04:11:40;24.60;;;14.23;;
47429;SDS011;33181;49.246;7.372;2022-12-10T04:14:07;24.50;;;14.13;;
47429;SDS011;33181;49.246;7.372;2022-12-10T04:16:53;24.57;;;14.37;;
47429;SDS011;33181;49.246;7.372;2022-12-10T04:19:19;25.93;;;14.47;;
47429;SDS011;33181;49.246;7.372;2022-12-10T04:21:46;25.27;;;13.40;;
47429;SDS011;33181;49.246;7.372;2022-12-10T04:24:32;22.33;;;13.10;;
47429;SDS011;33181;49.246;7.372;2022-12-10T04:27:20;23.10;;;13.30;;
47429;SDS011;33181;49.246;7.372;2022-12-10T04:29:51;22.73;;;13.40;;
47429;SDS011;33181;49.246;7.372;2022-12-10T04:32:18;25.40;;;14.47;;
47429;SDS011;33181;49.246;7.372;2022-12-10T04:34:44;24.17;;;13.67;;
47429;SDS011;33181;49.246;7.372;2022-12-10T04:37:10;24.23;;;13.47;;
47429;SDS011;33181;49.246;7.372;2022-12-10T04:39:37;25.53;;;15.10;;
47429;SDS011;33181;49.246;7.372;2022-12-10T04:42:04;23.20;;;13.70;;
47429;SDS011;33181;49.246;7.372;2022-12-10T04:44:30;29.93;;;14.60;;
47429;SDS011;33181;49.246;7.372;2022-12-10T04:46:56;27.20;;;15.10;;
47429;SDS011;33181;49.246;7.372;2022-12-10T04:49:22;25.77;;;14.37;;
47429;SDS011;33181;49.246;7.372;2022-12-10T04:51:48;23.70;;;14.07;;
47429;SDS011;33181;49.246;7.372;2022-12-10T04:54:15;22.87;;;13.23;;
47429;SDS011;33181;49.246;7.372;2022-12-10T04:56:41;24.70;;;14.27;;
47429;SDS011;33181;49.246;7.372;2022-12-10T04:59:08;25.37;;;14.53;;
47429;SDS011;33181;49.246;7.372;2022-12-10T05:01:36;23.10;;;14.00;;
47429;SDS011;33181;49.246;7.372;2022-12-10T05:04:03;22.83;;;13.37;;
47429;SDS011;33181;49.246;7.372;2022-12-10T05:06:32;22.90;;;13.47;;
47429;SDS011;33181;49.246;7.372;2022-12-10T05:08:58;23.43;;;13.63;;
47429;SDS011;33181;49.246;7.372;2022-12-10T05:11:25;25.00;;;14.80;;
47429;SDS011;33181;49.246;7.372;2022-12-10T05:13:54;24.57;;;13.80;;
47429;SDS011;33181;49.246;7.372;2022-12-10T05:16:21;22.40;;;13.57;;
47429;SDS011;33181;49.246;7.372;2022-12-10T05:18:49;25.07;;;13.90;;
47429;SDS011;33181;49.246;7.372;2022-12-10T05:21:16;24.47;;;14.53;;
47429;SDS011;33181;49.246;7.372;2022-12-10T05:23:45;22.03;;;13.30;;
47429;SDS011;33181;49.246;7.372;2022-12-10T05:26:17;24.83;;;13.40;;
47429;SDS011;33181;49.246;7.372;2022-12-10T05:28:46;23.00;;;13.40;;
47429;SDS011;33181;49.246;7.372;2022-12-10T05:31:22;21.03;;;13.57;;
47429;SDS011;33181;49.246;7.372;2022-12-10T05:33:52;23.70;;;13.83;;
47429;SDS011;33181;49.246;7.372;2022-12-10T05:36:20;21.63;;;13.50;;
47429;SDS011;33181;49.246;7.372;2022-12-10T05:38:48;20.53;;;12.20;;
47429;SDS011;33181;49.246;7.372;2022-12-10T05:41:18;21.77;;;13.43;;
47429;SDS011;33181;49.246;7.372;2022-12-10T05:43:53;22.37;;;13.30;;
47429;SDS011;33181;49.246;7.372;2022-12-10T05:46:22;22.50;;;13.07;;
47429;SDS011;33181;49.246;7.372;2022-12-10T05:48:53;22.80;;;12.90;;
47429;SDS011;33181;49.246;7.372;2022-12-10T05:51:21;24.00;;;14.00;;
47429;SDS011;33181;49.246;7.372;2022-12-10T05:53:50;21.63;;;12.80;;
47429;SDS011;33181;49.246;7.372;2022-12-10T05:56:18;23.30;;;13.40;;
47429;SDS011;33181;49.246;7.372;2022-12-10T05:58:48;23.70;;;13.20;;
47429;SDS011;33181;49.246;7.372;2022-12-10T06:01:18;21.80;;;13.30;;
47429;SDS011;33181;49.246;7.372;2022-12-10T06:03:47;23.83;;;13.23;;
47429;SDS011;33181;49.246;7.372;2022-12-10T06:06:19;22.87;;;13.90;;
47429;SDS011;33181;49.246;7.372;2022-12-10T06:08:49;21.17;;;12.57;;
47429;SDS011;33181;49.246;7.372;2022-12-10T06:11:16;23.63;;;14.30;;
47429;SDS011;33181;49.246;7.372;2022-12-10T06:13:41;21.80;;;13.27;;
47429;SDS011;33181;49.246;7.372;2022-12-10T06:16:09;22.97;;;14.43;;
47429;SDS011;33181;49.246;7.372;2022-12-10T06:18:38;25.50;;;13.60;;
47429;SDS011;33181;49.246;7.372;2022-12-10T06:21:05;24.20;;;13.17;;
47429;SDS011;33181;49.246;7.372;2022-12-10T06:23:36;25.37;;;14.13;;
47429;SDS011;33181;49.246;7.372;2022-12-10T06:26:04;22.43;;;13.17;;
47429;SDS011;33181;49.246;7.372;2022-12-10T06:28:41;24.70;;;13.93;;
47429;SDS011;33181;49.246;7.372;2022-12-10T06:31:10;25.03;;;14.23;;
47429;SDS011;33181;49.246;7.372;2022-12-10T06:33:36;26.40;;;14.47;;
47429;SDS011;33181;49.246;7.372;2022-12-10T06:36:06;23.50;;;13.43;;
47429;SDS011;33181;49.246;7.372;2022-12-10T06:38:34;24.53;;;13.80;;
47429;SDS011;33181;49.246;7.372;2022-12-10T06:41:03;25.43;;;14.57;;
47429;SDS011;33181;49.246;7.372;2022-12-10T06:43:31;21.30;;;12.40;;
47429;SDS011;33181;49.246;7.372;2022-12-10T06:45:57;25.63;;;13.90;;
47429;SDS011;33181;49.246;7.372;2022-12-10T06:48:22;23.20;;;14.07;;
47429;SDS011;33181;49.246;7.372;2022-12-10T06:50:48;22.10;;;13.13;;
47429;SDS011;33181;49.246;7.372;2022-12-10T06:53:14;23.83;;;13.47;;
47429;SDS011;33181;49.246;7.372;2022-12-10T06:55:40;20.23;;;13.37;;
47429;SDS011;33181;49.246;7.372;2022-12-10T06:58:05;24.47;;;13.47;;
47429;SDS011;33181;49.246;7.372;2022-12-10T07:00:31;24.77;;;13.60;;
47429;SDS011;33181;49.246;7.372;2022-12-10T07:02:57;23.13;;;13.50;;
47429;SDS011;33181;49.246;7.372;2022-12-10T07:05:23;25.57;;;13.50;;
47429;SDS011;33181;49.246;7.372;2022-12-10T07:07:48;25.50;;;13.43;;
47429;SDS011;33181;49.246;7.372;2022-12-10T07:10:14;25.03;;;13.20;;
47429;SDS011;33181;49.246;7.372;2022-12-10T07:12:40;22.30;;;13.47;;
47429;SDS011;33181;49.246;7.372;2022-12-10T07:15:06;24.70;;;13.70;;
47429;SDS011;33181;49.246;7.372;2022-12-10T07:17:33;24.17;;;14.20;;
47429;SDS011;33181;49.246;7.372;2022-12-10T07:19:59;25.77;;;14.17;;
47429;SDS011;33181;49.246;7.372;2022-12-10T07:22:24;25.90;;;14.50;;
47429;SDS011;33181;49.246;7.372;2022-12-10T07:24:50;25.00;;;13.30;;
47429;SDS011;33181;49.246;7.372;2022-12-10T07:27:16;27.83;;;14.50;;
47429;SDS011;33181;49.246;7.372;2022-12-10T07:29:43;21.97;;;12.90;;
47429;SDS011;33181;49.246;7.372;2022-12-10T07:32:09;23.20;;;13.43;;
47429;SDS011;33181;49.246;7.372;2022-12-10T07:34:35;26.67;;;14.23;;
47429;SDS011;33181;49.246;7.372;2022-12-10T07:37:00;23.60;;;14.60;;
47429;SDS011;33181;49.246;7.372;2022-12-10T07:39:26;22.83;;;13.10;;
47429;SDS011;33181;49.246;7.372;2022-12-10T07:41:52;22.97;;;14.60;;
47429;SDS011;33181;49.246;7.372;2022-12-10T07:44:22;23.83;;;13.03;;
47429;SDS011;33181;49.246;7.372;2022-12-10T07:46:51;22.53;;;13.70;;
47429;SDS011;33181;49.246;7.372;2022-12-10T07:49:19;24.13;;;14.60;;
47429;SDS011;33181;49.246;7.372;2022-12-10T07:51:45;24.30;;;13.60;;
47429;SDS011;33181;49.246;7.372;2022-12-10T07:54:13;23.43;;;13.60;;
47429;SDS011;33181;49.246;7.372;2022-12-10T07:56:40;29.00;;;14.70;;
47429;SDS011;33181;49.246;7.372;2022-12-10T07:59:06;23.90;;;14.00;;
47429;SDS011;33181;49.246;7.372;2022-12-10T08:01:32;27.53;;;14.90;;
47429;SDS011;33181;49.246;7.372;2022-12-10T08:03:58;25.20;;;15.30;;
47429;SDS011;33181;49.246;7.372;2022-12-10T08:06:25;27.10;;;15.93;;
47429;SDS011;33181;49.246;7.372;2022-12-10T08:08:54;29.20;;;15.60;;
47429;SDS011;33181;49.246;7.372;2022-12-10T08:11:22;27.37;;;14.17;;
47429;SDS011;33181;49.246;7.372;2022-12-10T08:13:48;26.90;;;15.47;;
47429;SDS011;33181;49.246;7.372;2022-12-10T08:16:19;26.20;;;14.60;;
47429;SDS011;33181;49.246;7.372;2022-12-10T08:18:53;24.67;;;13.83;;
47429;SDS011;33181;49.246;7.372;2022-12-10T08:21:25;30.30;;;15.93;;
47429;SDS011;33181;49.246;7.372;2022-12-10T08:23:57;25.73;;;14.70;;
47429;SDS011;33181;49.246;7.372;2022-12-10T08:26:25;27.27;;;14.93;;
47429;SDS011;33181;49.246;7.372;2022-12-10T08:28:55;26.63;;;14.77;;
47429;SDS011;33181;49.246;7.372;2022-12-10T08:31:22;28.03;;;15.67;;
47429;SDS011;33181;49.246;7.372;2022-12-10T08:33:49;27.50;;;14.90;;
47429;SDS011;33181;49.246;7.372;2022-12-10T08:36:15;31.17;;;15.10;;
47429;SDS011;33181;49.246;7.372;2022-12-10T08:38:42;28.40;;;15.83;;
47429;SDS011;33181;49.246;7.372;2022-12-10T08:41:10;26.27;;;14.80;;
47429;SDS011;33181;49.246;7.372;2022-12-10T08:43:41;27.43;;;15.37;;
47429;SDS011;33181;49.246;7.372;2022-12-10T08:46:07;28.50;;;15.30;;
47429;SDS011;33181;49.246;7.372;2022-12-10T08:48:35;23.00;;;14.33;;
47429;SDS011;33181;49.246;7.372;2022-12-10T08:51:02;26.67;;;14.93;;
47429;SDS011;33181;49.246;7.372;2022-12-10T08:53:30;25.77;;;14.40;;
47429;SDS011;33181;49.246;7.372;2022-12-10T08:55:56;25.70;;;14.50;;
47429;SDS011;33181;49.246;7.372;2022-12-10T08:58:24;24.37;;;14.13;;
47429;SDS011;33181;49.246;7.372;2022-12-10T09:00:50;29.40;;;13.40;;
47429;SDS011;33181;49.246;7.372;2022-12-10T09:03:18;25.83;;;14.83;;
47429;SDS011;33181;49.246;7.372;2022-12-10T09:05:44;25.30;;;14.77;;
47429;SDS011;33181;49.246;7.372;2022-12-10T09:08:10;51.90;;;26.00;;
47429;SDS011;33181;49.246;7.372;2022-12-10T09:10:37;31.80;;;18.10;;
47429;SDS011;33181;49.246;7.372;2022-12-10T09:13:04;24.80;;;14.40;;
47429;SDS011;33181;49.246;7.372;2022-12-10T09:15:30;25.70;;;15.23;;
47429;SDS011;33181;49.246;7.372;2022-12-10T09:17:56;24.17;;;14.13;;
47429;SDS011;33181;49.246;7.372;2022-12-10T09:20:22;23.83;;;13.83;;
47429;SDS011;33181;49.246;7.372;2022-12-10T09:22:48;21.30;;;13.70;;
47429;SDS011;33181;49.246;7.372;2022-12-10T09:25:13;21.40;;;13.60;;
47429;SDS011;33181;49.246;7.372;2022-12-10T09:27:41;24.87;;;13.70;;
47429;SDS011;33181;49.246;7.372;2022-12-10T09:30:08;24.90;;;14.13;;
47429;SDS011;33181;49.246;7.372;2022-12-10T09:32:35;24.53;;;13.90;;
47429;SDS011;33181;49.246;7.372;2022-12-10T09:35:01;21.33;;;13.10;;
47429;SDS011;33181;49.246;7.372;2022-12-10T09:37:27;26.37;;;14.03;;
47429;SDS011;33181;49.246;7.372;2022-12-10T09:39:53;25.47;;;13.70;;
47429;SDS011;33181;49.246;7.372;2022-12-10T09:45:26;23.80;;;13.27;;
47429;SDS011;33181;49.246;7.372;2022-12-10T09:50:42;21.47;;;13.00;;
47429;SDS011;33181;49.246;7.372;2022-12-10T09:53:28;21.40;;;13.10;;
47429;SDS011;33181;49.246;7.372;2022-12-10T09:55:55;21.43;;;13.00;;
47429;SDS011;33181;49.246;7.372;2022-12-10T09:58:23;24.37;;;13.40;;
47429;SDS011;33181;49.246;7.372;2022-12-10T10:00:58;18.77;;;12.30;;
47429;SDS011;33181;49.246;7.372;2022-12-10T10:03:28;21.33;;;13.83;;
47429;SDS011;33181;49.246;7.372;2022-12-10T10:05:58;23.37;;;13.53;;
47429;SDS011;33181;49.246;7.372;2022-12-10T10:08:27;22.50;;;13.17;;
47429;SDS011;33181;49.246;7.372;2022-12-10T10:11:02;22.07;;;12.93;;
47429;SDS011;33181;49.246;7.372;2022-12-10T10:13:38;19.37;;;12.20;;
47429;SDS011;33181;49.246;7.372;2022-12-10T10:16:25;20.77;;;11.80;;
47429;SDS011;33181;49.246;7.372;2022-12-10T10:19:06;17.27;;;11.67;;
47429;SDS011;33181;49.246;7.372;2022-12-10T10:21:49;18.40;;;12.03;;
47429;SDS011;33181;49.246;7.372;2022-12-10T10:24:36;18.77;;;11.80;;
47429;SDS011;33181;49.246;7.372;2022-12-10T10:27:14;20.83;;;12.67;;
47429;SDS011;33181;49.246;7.372;2022-12-10T10:29:44;21.50;;;11.10;;
47429;SDS011;33181;49.246;7.372;2022-12-10T10:32:20;17.37;;;11.30;;
47429;SDS011;33181;49.246;7.372;2022-12-10T10:34:55;16.53;;;10.37;;
47429;SDS011;33181;49.246;7.372;2022-12-10T10:37:28;18.00;;;11.30;;
47429;SDS011;33181;49.246;7.372;2022-12-10T10:39:58;16.57;;;11.27;;
47429;SDS011;33181;49.246;7.372;2022-12-10T10:42:30;15.57;;;10.57;;
47429;SDS011;33181;49.246;7.372;2022-12-10T10:45:05;19.77;;;11.10;;
47429;SDS011;33181;49.246;7.372;2022-12-10T10:48:13;20.23;;;12.27;;
47429;SDS011;33181;49.246;7.372;2022-12-10T10:50:51;17.70;;;11.03;;
47429;SDS011;33181;49.246;7.372;2022-12-10T10:56:27;16.93;;;11.07;;
47429;SDS011;33181;49.246;7.372;2022-12-10T10:59:03;18.70;;;11.17;;
47429;SDS011;33181;49.246;7.372;2022-12-10T11:01:52;18.13;;;11.70;;
47429;SDS011;33181;49.246;7.372;2022-12-10T11:04:24;22.43;;;12.20;;
47429;SDS011;33181;49.246;7.372;2022-12-10T11:07:00;16.70;;;10.50;;
47429;SDS011;33181;49.246;7.372;2022-12-10T11:09:29;19.60;;;11.47;;
47429;SDS011;33181;49.246;7.372;2022-12-10T11:12:20;16.80;;;10.93;;
47429;SDS011;33181;49.246;7.372;2022-12-10T11:14:54;15.30;;;10.50;;
47429;SDS011;33181;49.246;7.372;2022-12-10T11:17:21;18.77;;;12.07;;
47429;SDS011;33181;49.246;7.372;2022-12-10T11:19:59;17.57;;;10.53;;
47429;SDS011;33181;49.246;7.372;2022-12-10T11:22:49;17.77;;;10.97;;
47429;SDS011;33181;49.246;7.372;2022-12-10T11:25:25;18.00;;;10.47;;
47429;SDS011;33181;49.246;7.372;2022-12-10T11:45:50;17.00;;;11.17;;
47429;SDS011;33181;49.246;7.372;2022-12-10T11:51:55;15.23;;;10.47;;
47429;SDS011;33181;49.246;7.372;2022-12-10T11:54:53;19.50;;;10.63;;
47429;SDS011;33181;49.246;7.372;2022-12-10T11:57:40;30.80;;;18.17;;
47429;SDS011;33181;49.246;7.372;2022-12-10T12:00:48;18.43;;;12.37;;
47429;SDS011;33181;49.246;7.372;2022-12-10T12:09:32;19.23;;;11.43;;
47429;SDS011;33181;49.246;7.372;2022-12-10T12:12:15;17.60;;;10.00;;
47429;SDS011;33181;49.246;7.372;2022-12-10T12:15:08;20.07;;;12.80;;
47429;SDS011;33181;49.246;7.372;2022-12-10T12:17:52;14.17;;;9.47;;
47429;SDS011;33181;49.246;7.372;2022-12-10T12:20:41;13.20;;;9.73;;
47429;SDS011;33181;49.246;7.372;2022-12-10T12:25:45;17.00;;;9.73;;
47429;SDS011;33181;49.246;7.372;2022-12-10T12:28:20;15.27;;;10.57;;
47429;SDS011;33181;49.246;7.372;2022-12-10T12:31:12;15.77;;;10.30;;
47429;SDS011;33181;49.246;7.372;2022-12-10T12:36:22;13.90;;;9.73;;
47429;SDS011;33181;49.246;7.372;2022-12-10T12:42:04;16.90;;;10.17;;
47429;SDS011;33181;49.246;7.372;2022-12-10T12:45:14;15.53;;;9.73;;
47429;SDS011;33181;49.246;7.372;2022-12-10T12:50:42;15.77;;;9.60;;
47429;SDS011;33181;49.246;7.372;2022-12-10T12:53:29;14.40;;;9.20;;
47429;SDS011;33181;49.246;7.372;2022-12-10T13:04:16;12.53;;;8.60;;
47429;SDS011;33181;49.246;7.372;2022-12-10T13:06:42;15.00;;;8.50;;
47429;SDS011;33181;49.246;7.372;2022-12-10T13:09:47;13.23;;;8.60;;
47429;SDS011;33181;49.246;7.372;2022-12-10T13:12:45;12.17;;;8.57;;
47429;SDS011;33181;49.246;7.372;2022-12-10T13:15:33;13.40;;;8.17;;
47429;SDS011;33181;49.246;7.372;2022-12-10T13:20:40;15.47;;;8.97;;
47429;SDS011;33181;49.246;7.372;2022-12-10T13:50:06;13.40;;;9.10;;
47429;SDS011;33181;49.246;7.372;2022-12-10T13:55:49;17.30;;;8.93;;
47429;SDS011;33181;49.246;7.372;2022-12-10T14:01:47;13.30;;;8.40;;
47429;SDS011;33181;49.246;7.372;2022-12-10T14:04:30;13.03;;;8.20;;
47429;SDS011;33181;49.246;7.372;2022-12-10T14:07:15;13.07;;;8.70;;
47429;SDS011;33181;49.246;7.372;2022-12-10T14:09:45;13.50;;;8.40;;
47429;SDS011;33181;49.246;7.372;2022-12-10T14:12:20;13.50;;;9.10;;
47429;SDS011;33181;49.246;7.372;2022-12-10T14:15:14;14.27;;;9.23;;
47429;SDS011;33181;49.246;7.372;2022-12-10T14:17:49;14.43;;;9.13;;
47429;SDS011;33181;49.246;7.372;2022-12-10T14:20:23;17.77;;;10.30;;
47429;SDS011;33181;49.246;7.372;2022-12-10T14:22:51;15.40;;;9.50;;
47429;SDS011;33181;49.246;7.372;2022-12-10T14:25:42;15.90;;;10.40;;
47429;SDS011;33181;49.246;7.372;2022-12-10T14:28:16;18.27;;;10.80;;
47429;SDS011;33181;49.246;7.372;2022-12-10T14:30:49;15.27;;;10.10;;
47429;SDS011;33181;49.246;7.372;2022-12-10T14:33:35;13.30;;;9.63;;
47429;SDS011;33181;49.246;7.372;2022-12-10T14:36:02;16.03;;;10.57;;
47429;SDS011;33181;49.246;7.372;2022-12-10T14:38:31;15.27;;;9.47;;
47429;SDS011;33181;49.246;7.372;2022-12-10T14:40:59;15.77;;;9.60;;
47429;SDS011;33181;49.246;7.372;2022-12-10T14:43:32;14.33;;;9.97;;
47429;SDS011;33181;49.246;7.372;2022-12-10T14:46:03;15.57;;;10.10;;
47429;SDS011;33181;49.246;7.372;2022-12-10T14:48:38;16.30;;;10.50;;
47429;SDS011;33181;49.246;7.372;2022-12-10T14:51:13;17.27;;;10.87;;
47429;SDS011;33181;49.246;7.372;2022-12-10T14:53:45;16.20;;;10.10;;
47429;SDS011;33181;49.246;7.372;2022-12-10T14:56:26;14.83;;;10.23;;
47429;SDS011;33181;49.246;7.372;2022-12-10T14:59:11;16.10;;;9.87;;
47429;SDS011;33181;49.246;7.372;2022-12-10T15:01:47;17.47;;;10.57;;
47429;SDS011;33181;49.246;7.372;2022-12-10T15:04:21;18.90;;;10.33;;
47429;SDS011;33181;49.246;7.372;2022-12-10T15:06:49;16.87;;;10.27;;
47429;SDS011;33181;49.246;7.372;2022-12-10T15:09:16;17.63;;;10.93;;
47429;SDS011;33181;49.246;7.372;2022-12-10T15:11:53;19.40;;;11.10;;
47429;SDS011;33181;49.246;7.372;2022-12-10T15:14:21;17.50;;;10.70;;
47429;SDS011;33181;49.246;7.372;2022-12-10T15:16:49;18.20;;;10.93;;
47429;SDS011;33181;49.246;7.372;2022-12-10T15:19:19;15.07;;;10.00;;
47429;SDS011;33181;49.246;7.372;2022-12-10T15:21:50;19.37;;;11.60;;
47429;SDS011;33181;49.246;7.372;2022-12-10T15:24:27;17.13;;;11.33;;
47429;SDS011;33181;49.246;7.372;2022-12-10T15:27:01;22.40;;;11.97;;
47429;SDS011;33181;49.246;7.372;2022-12-10T15:29:39;19.20;;;12.23;;
47429;SDS011;33181;49.246;7.372;2022-12-10T15:32:06;18.47;;;11.97;;
47429;SDS011;33181;49.246;7.372;2022-12-10T15:35:04;16.40;;;11.30;;
47429;SDS011;33181;49.246;7.372;2022-12-10T15:37:34;19.20;;;11.87;;
47429;SDS011;33181;49.246;7.372;2022-12-10T15:40:05;20.63;;;12.57;;
47429;SDS011;33181;49.246;7.372;2022-12-10T15:43:09;16.30;;;10.80;;
47429;SDS011;33181;49.246;7.372;2022-12-10T15:45:45;16.50;;;10.83;;
47429;SDS011;33181;49.246;7.372;2022-12-10T15:48:15;17.57;;;11.27;;
47429;SDS011;33181;49.246;7.372;2022-12-10T15:50:42;18.93;;;11.60;;
47429;SDS011;33181;49.246;7.372;2022-12-10T15:53:14;20.73;;;11.57;;
47429;SDS011;33181;49.246;7.372;2022-12-10T15:55:47;20.27;;;12.30;;
47429;SDS011;33181;49.246;7.372;2022-12-10T15:58:13;21.00;;;12.57;;
47429;SDS011;33181;49.246;7.372;2022-12-10T16:00:39;19.60;;;12.50;;
47429;SDS011;33181;49.246;7.372;2022-12-10T16:03:09;25.00;;;13.60;;
47429;SDS011;33181;49.246;7.372;2022-12-10T16:05:38;27.47;;;14.50;;
47429;SDS011;33181;49.246;7.372;2022-12-10T16:08:38;22.50;;;13.60;;
47429;SDS011;33181;49.246;7.372;2022-12-10T16:11:02;20.07;;;13.07;;
47429;SDS011;33181;49.246;7.372;2022-12-10T16:13:42;20.90;;;12.43;;
47429;SDS011;33181;49.246;7.372;2022-12-10T16:16:16;21.07;;;13.57;;
47429;SDS011;33181;49.246;7.372;2022-12-10T16:18:42;24.93;;;14.93;;
47429;SDS011;33181;49.246;7.372;2022-12-10T16:21:08;36.03;;;21.13;;
47429;SDS011;33181;49.246;7.372;2022-12-10T16:23:34;38.23;;;22.40;;
47429;SDS011;33181;49.246;7.372;2022-12-10T16:26:02;40.87;;;25.90;;
47429;SDS011;33181;49.246;7.372;2022-12-10T16:28:37;47.43;;;26.20;;
47429;SDS011;33181;49.246;7.372;2022-12-10T16:31:03;44.27;;;25.57;;